createdAt,value
2018-11-21T00:02:06.497Z,3.60
2018-11-21T00:04:55.177Z,3.70
2018-11-21T00:07:43.882Z,3.70
2018-11-21T00:10:32.555Z,3.70
2018-11-21T00:13:21.251Z,3.70
2018-11-21T00:16:09.943Z,3.70
2018-11-21T00:19:00.771Z,3.70
2018-11-21T00:21:47.363Z,3.70
2018-11-21T00:24:36.062Z,3.80
2018-11-21T00:27:24.748Z,3.80
2018-11-21T00:30:14.756Z,3.80
2018-11-21T00:33:03.452Z,3.80
2018-11-21T00:35:52.164Z,3.80
2018-11-21T00:38:40.835Z,3.80
2018-11-21T00:41:29.552Z,3.80
2018-11-21T00:44:18.233Z,3.80
2018-11-21T00:47:06.956Z,3.80
2018-11-21T00:49:55.639Z,3.80
2018-11-21T00:52:44.362Z,3.80
2018-11-21T00:55:33.030Z,3.80
2018-11-21T00:58:21.749Z,3.70
2018-11-21T01:01:10.434Z,3.70
2018-11-21T01:03:51.316Z,3.70
2018-11-21T01:06:32.462Z,3.80
2018-11-21T01:09:13.714Z,3.80
2018-11-21T01:11:54.804Z,3.70
2018-11-21T01:14:36.053Z,3.80
2018-11-21T01:17:17.028Z,3.70
2018-11-21T01:19:58.266Z,3.70
2018-11-21T01:22:39.540Z,3.70
2018-11-21T01:25:20.842Z,3.70
2018-11-21T01:28:01.712Z,3.60
2018-11-21T01:30:42.604Z,3.70
2018-11-21T01:33:24.049Z,3.60
2018-11-21T01:36:05.260Z,3.60
2018-11-21T01:38:46.551Z,3.70
2018-11-21T01:41:27.628Z,3.70
2018-11-21T01:44:09.029Z,3.70
2018-11-21T01:46:50.191Z,3.70
2018-11-21T01:49:31.345Z,3.80
2018-11-21T01:52:12.733Z,3.80
2018-11-21T01:54:53.877Z,3.80
2018-11-21T01:57:35.237Z,3.80
2018-11-21T02:00:16.643Z,3.80
2018-11-21T02:02:57.940Z,3.80
2018-11-21T02:05:39.334Z,3.70
2018-11-21T02:08:20.474Z,3.80
2018-11-21T02:11:02.071Z,3.80
2018-11-21T02:13:43.230Z,3.80
2018-11-21T02:16:24.039Z,3.80
2018-11-21T02:19:05.503Z,3.80
2018-11-21T02:21:46.701Z,3.80
2018-11-21T02:24:28.014Z,3.80
2018-11-21T02:27:09.118Z,3.80
2018-11-21T02:29:50.544Z,3.80
2018-11-21T02:32:31.735Z,3.80
2018-11-21T02:35:12.847Z,3.80
2018-11-21T02:37:54.079Z,3.80
2018-11-21T02:40:35.620Z,3.90
2018-11-21T02:43:17.342Z,3.90
2018-11-21T02:45:58.607Z,3.80
2018-11-21T02:48:39.734Z,3.80
2018-11-21T02:51:21.134Z,3.90
2018-11-21T02:54:02.523Z,3.90
2018-11-21T02:56:43.439Z,3.90
2018-11-21T02:59:24.971Z,3.90
2018-11-21T03:02:05.877Z,3.90
2018-11-21T03:04:47.061Z,3.90
2018-11-21T03:07:28.387Z,3.90
2018-11-21T03:10:09.482Z,3.90
2018-11-21T03:12:50.949Z,3.90
2018-11-21T03:15:32.333Z,3.90
2018-11-21T03:18:13.491Z,3.90
2018-11-21T03:20:54.993Z,3.90
2018-11-21T03:23:36.152Z,3.90
2018-11-21T03:26:17.456Z,3.80
2018-11-21T03:28:58.882Z,3.90
2018-11-21T03:31:40.427Z,3.80
2018-11-21T03:34:21.602Z,3.80
2018-11-21T03:37:02.954Z,3.80
2018-11-21T03:39:44.296Z,3.80
2018-11-21T03:42:25.283Z,3.80
2018-11-21T03:45:06.052Z,3.80
2018-11-21T03:47:47.503Z,3.80
2018-11-21T03:50:28.311Z,3.90
2018-11-21T03:53:09.864Z,3.80
2018-11-21T03:55:51.426Z,3.80
2018-11-21T03:58:32.750Z,3.80
2018-11-21T04:01:14.159Z,3.80
2018-11-21T04:03:55.526Z,3.80
2018-11-21T04:06:36.912Z,3.80
2018-11-21T04:09:18.053Z,3.80
2018-11-21T04:11:59.311Z,3.80
2018-11-21T04:14:40.212Z,3.90
2018-11-21T04:17:21.665Z,3.90
2018-11-21T04:20:03.190Z,3.90
2018-11-21T04:22:44.476Z,3.90
2018-11-21T04:25:25.842Z,3.80
2018-11-21T04:28:07.050Z,3.90
2018-11-21T04:30:48.270Z,3.90
2018-11-21T04:33:30.019Z,3.90
2018-11-21T04:36:11.824Z,3.90
2018-11-21T04:38:52.759Z,3.90
2018-11-21T04:41:34.080Z,3.90
2018-11-21T04:44:15.550Z,3.90
2018-11-21T04:46:56.482Z,3.90
2018-11-21T04:49:37.724Z,3.90
2018-11-21T04:52:18.809Z,3.90
2018-11-21T04:55:00.297Z,3.80
2018-11-21T04:57:41.227Z,3.90
2018-11-21T05:00:22.396Z,3.90
2018-11-21T05:03:03.703Z,3.90
2018-11-21T05:05:45.028Z,3.90
2018-11-21T05:08:26.167Z,3.90
2018-11-21T05:11:07.750Z,3.90
2018-11-21T05:13:49.123Z,3.80
2018-11-21T05:16:30.181Z,3.80
2018-11-21T05:19:11.033Z,3.80
2018-11-21T05:21:51.752Z,3.90
2018-11-21T05:24:32.695Z,3.80
2018-11-21T05:27:14.036Z,3.80
2018-11-21T05:29:55.220Z,3.80
2018-11-21T05:32:36.488Z,3.80
2018-11-21T05:35:17.213Z,3.80
2018-11-21T05:37:58.607Z,3.80
2018-11-21T05:40:40.122Z,3.80
2018-11-21T05:43:21.353Z,3.70
2018-11-21T05:46:02.604Z,3.80
2018-11-21T05:48:43.875Z,3.80
2018-11-21T05:51:25.262Z,3.80
2018-11-21T05:54:06.814Z,3.80
2018-11-21T05:56:47.916Z,3.80
2018-11-21T05:59:29.124Z,3.80
2018-11-21T06:02:10.380Z,3.80
2018-11-21T06:04:51.793Z,3.80
2018-11-21T06:07:33.186Z,3.80
2018-11-21T06:10:14.551Z,3.70
2018-11-21T06:12:55.641Z,3.70
2018-11-21T06:15:36.661Z,3.70
2018-11-21T06:18:17.933Z,3.70
2018-11-21T06:20:59.509Z,3.60
2018-11-21T06:23:40.897Z,3.60
2018-11-21T06:26:22.208Z,3.60
2018-11-21T06:29:03.253Z,3.60
2018-11-21T06:31:44.441Z,3.60
2018-11-21T06:34:29.127Z,3.60
2018-11-21T06:37:06.855Z,3.60
2018-11-21T06:39:48.038Z,3.60
2018-11-21T06:42:28.864Z,3.60
2018-11-21T06:45:10.432Z,3.50
2018-11-21T06:47:51.382Z,3.50
2018-11-21T06:50:32.760Z,3.50
2018-11-21T06:53:14.017Z,3.60
2018-11-21T06:55:55.207Z,3.60
2018-11-21T06:58:35.902Z,3.60
2018-11-21T07:01:17.412Z,3.60
2018-11-21T07:03:58.281Z,3.60
2018-11-21T07:06:39.714Z,3.60
2018-11-21T07:09:21.222Z,3.60
2018-11-21T07:12:02.450Z,3.60
2018-11-21T07:14:43.907Z,3.70
2018-11-21T07:17:24.861Z,3.70
2018-11-21T07:20:06.146Z,3.60
2018-11-21T07:22:47.541Z,3.60
2018-11-21T07:25:29.119Z,3.70
2018-11-21T07:28:13.166Z,3.70
2018-11-21T07:30:51.634Z,3.70
2018-11-21T07:33:33.163Z,3.70
2018-11-21T07:36:14.141Z,3.70
2018-11-21T07:38:55.331Z,3.70
2018-11-21T07:41:36.573Z,3.70
2018-11-21T07:44:17.762Z,3.70
2018-11-21T07:46:58.931Z,3.70
2018-11-21T07:49:39.824Z,3.80
2018-11-21T07:52:20.740Z,3.80
2018-11-21T07:55:01.832Z,3.80
2018-11-21T07:58:01.666Z,3.90
2018-11-21T08:00:48.002Z,3.90
2018-11-21T08:03:31.326Z,3.90
2018-11-21T08:09:35.126Z,3.90
2018-11-21T08:12:40.939Z,4.00
2018-11-21T08:15:40.920Z,3.90
2018-11-21T08:18:44.250Z,4.00
2018-11-21T08:21:33.159Z,4.00
2018-11-21T08:24:30.651Z,4.00
2018-11-21T08:27:30.812Z,4.00
2018-11-21T08:30:12.367Z,4.10
2018-11-21T08:32:53.622Z,4.10
2018-11-21T08:35:34.882Z,4.10
2018-11-21T08:38:16.799Z,4.10
2018-11-21T08:40:57.570Z,4.20
2018-11-21T08:43:38.460Z,4.10
2018-11-21T08:46:19.960Z,4.20
2018-11-21T08:49:01.259Z,4.20
2018-11-21T08:51:42.168Z,4.20
2018-11-21T08:54:23.079Z,4.20
2018-11-21T08:57:04.623Z,4.20
2018-11-21T08:59:45.977Z,4.20
2018-11-21T09:02:27.326Z,4.20
2018-11-21T09:05:08.846Z,4.20
2018-11-21T09:07:50.499Z,4.30
2018-11-21T09:13:12.020Z,4.30
2018-11-21T09:15:53.530Z,4.30
2018-11-21T09:18:34.123Z,4.40
2018-11-21T09:21:15.330Z,4.40
2018-11-21T09:23:57.007Z,4.40
2018-11-21T09:26:38.543Z,4.40
2018-11-21T09:29:19.842Z,4.40
2018-11-21T09:32:01.276Z,4.40
2018-11-21T09:34:42.939Z,4.40
2018-11-21T09:37:24.351Z,4.30
2018-11-21T09:40:05.860Z,4.40
2018-11-21T09:42:48.505Z,4.40
2018-11-21T09:45:29.549Z,4.50
2018-11-21T09:48:10.677Z,4.50
2018-11-21T09:50:52.194Z,4.50
2018-11-21T09:53:33.354Z,4.50
2018-11-21T09:56:14.535Z,4.40
2018-11-21T09:58:55.233Z,4.50
2018-11-21T10:01:36.720Z,4.60
2018-11-21T10:04:17.524Z,4.60
2018-11-21T10:06:58.773Z,4.70
2018-11-21T10:09:45.145Z,4.70
2018-11-21T10:12:26.730Z,4.70
2018-11-21T10:15:08.053Z,4.70
2018-11-21T10:17:48.989Z,4.80
2018-11-21T10:20:30.466Z,4.80
2018-11-21T10:23:12.215Z,4.90
2018-11-21T10:25:53.250Z,4.90
2018-11-21T10:28:34.877Z,4.90
2018-11-21T10:31:16.512Z,4.90
2018-11-21T10:33:57.990Z,5.00
2018-11-21T10:36:39.054Z,5.10
2018-11-21T10:39:20.082Z,5.20
2018-11-21T10:42:01.605Z,5.40
2018-11-21T10:44:43.037Z,5.80
2018-11-21T10:47:24.349Z,5.70
2018-11-21T10:50:05.764Z,5.80
2018-11-21T10:52:47.032Z,5.80
2018-11-21T10:55:28.648Z,5.80
2018-11-21T10:58:10.127Z,5.70
2018-11-21T11:01:10.567Z,5.80
2018-11-21T11:03:54.684Z,5.70
2018-11-21T11:06:55.273Z,5.70
2018-11-21T11:12:58.203Z,5.80
2018-11-21T11:16:04.248Z,5.80
2018-11-21T11:19:09.790Z,5.80
2018-11-21T11:22:12.491Z,5.90
2018-11-21T11:28:23.692Z,5.90
2018-11-21T11:31:22.785Z,5.90
2018-11-21T11:34:18.642Z,5.80
2018-11-21T11:37:18.453Z,5.80
2018-11-21T11:40:18.467Z,5.70
2018-11-21T11:43:18.518Z,5.70
2018-11-21T11:46:18.485Z,5.60
2018-11-21T11:49:21.231Z,5.60
2018-11-21T11:52:21.964Z,5.50
2018-11-21T11:55:22.719Z,5.50
2018-11-21T11:58:22.786Z,5.50
2018-11-21T12:01:17.662Z,5.40
2018-11-21T12:04:18.187Z,5.50
2018-11-21T12:07:08.489Z,5.50
2018-11-21T12:10:08.760Z,5.30
2018-11-21T12:13:08.735Z,5.40
2018-11-21T12:16:08.647Z,5.40
2018-11-21T12:22:12.211Z,5.40
2018-11-21T12:25:12.247Z,5.30
2018-11-21T12:31:12.961Z,5.40
2018-11-21T12:34:12.826Z,5.30
2018-11-21T12:37:12.722Z,5.30
2018-11-21T12:40:14.018Z,5.30
2018-11-21T12:43:13.926Z,5.20
2018-11-21T12:46:14.142Z,5.20
2018-11-21T12:49:07.644Z,5.10
2018-11-21T12:52:07.742Z,5.10
2018-11-21T12:55:08.005Z,5.10
2018-11-21T12:58:10.737Z,5.20
2018-11-21T13:01:11.446Z,5.20
2018-11-21T13:04:11.365Z,5.30
2018-11-21T13:07:11.442Z,5.20
2018-11-21T13:10:02.142Z,5.20
2018-11-21T13:16:08.787Z,5.30
2018-11-21T13:19:08.672Z,5.30
2018-11-21T13:22:08.728Z,5.30
2018-11-21T13:25:09.312Z,5.30
2018-11-21T13:28:09.254Z,5.30
2018-11-21T13:31:09.456Z,5.30
2018-11-21T13:34:10.108Z,5.40
2018-11-21T13:40:18.781Z,5.30
2018-11-21T13:43:14.023Z,5.30
2018-11-21T13:46:12.955Z,5.30
2018-11-21T13:52:15.250Z,5.10
2018-11-21T13:55:00.846Z,5.10
2018-11-21T13:57:42.117Z,5.10
2018-11-21T14:00:23.445Z,5.10
2018-11-21T14:03:04.761Z,5.10
2018-11-21T14:05:46.290Z,5.10
2018-11-21T14:08:27.812Z,4.90
2018-11-21T14:11:09.048Z,5.00
2018-11-21T14:13:50.520Z,5.00
2018-11-21T14:16:31.753Z,5.00
2018-11-21T14:19:13.136Z,5.00
2018-11-21T14:21:55.986Z,5.10
2018-11-21T14:24:36.112Z,5.10
2018-11-21T14:27:16.919Z,5.10
2018-11-21T14:29:58.100Z,5.10
2018-11-21T14:32:39.016Z,5.10
2018-11-21T14:35:20.602Z,5.10
2018-11-21T14:38:01.348Z,5.10
2018-11-21T14:40:43.054Z,5.10
2018-11-21T14:43:24.054Z,5.10
2018-11-21T14:46:05.780Z,5.10
2018-11-21T14:48:46.765Z,5.00
2018-11-21T14:51:28.092Z,5.00
2018-11-21T14:54:09.811Z,5.00
2018-11-21T14:56:50.683Z,5.00
2018-11-21T14:59:31.420Z,5.00
2018-11-21T15:02:12.685Z,4.90
2018-11-21T15:04:54.022Z,4.90
2018-11-21T15:07:35.547Z,4.90
2018-11-21T15:10:17.101Z,4.90
2018-11-21T15:12:58.425Z,4.90
2018-11-21T15:15:40.068Z,4.90
2018-11-21T15:18:20.781Z,4.90
2018-11-21T15:21:02.556Z,4.90
2018-11-21T15:23:44.041Z,4.90
2018-11-21T15:26:25.587Z,4.90
2018-11-21T15:29:06.658Z,4.80
2018-11-21T15:31:47.956Z,4.80
2018-11-21T15:34:30.235Z,4.80
2018-11-21T15:37:11.509Z,4.80
2018-11-21T15:39:52.327Z,4.80
2018-11-21T15:42:33.208Z,4.80
2018-11-21T15:45:16.067Z,4.80
2018-11-21T15:47:57.036Z,4.80
2018-11-21T15:50:37.755Z,4.80
2018-11-21T15:53:19.170Z,4.80
2018-11-21T15:56:00.198Z,4.90
2018-11-21T15:58:41.623Z,4.90
2018-11-21T16:01:22.502Z,4.80
2018-11-21T16:04:03.747Z,4.80
2018-11-21T16:06:44.889Z,4.80
2018-11-21T16:09:25.963Z,4.80
2018-11-21T16:12:06.815Z,4.80
2018-11-21T16:14:47.927Z,4.70
2018-11-21T16:17:29.145Z,4.80
2018-11-21T16:20:11.270Z,4.80
2018-11-21T16:22:52.648Z,4.80
2018-11-21T16:25:33.763Z,4.80
2018-11-21T16:28:14.836Z,4.70
2018-11-21T16:30:55.859Z,4.70
2018-11-21T16:33:36.843Z,4.70
2018-11-21T16:36:17.618Z,4.70
2018-11-21T16:38:58.803Z,4.70
2018-11-21T16:41:39.609Z,4.70
2018-11-21T16:44:20.933Z,4.70
2018-11-21T16:47:02.354Z,4.70
2018-11-21T16:49:43.483Z,4.70
2018-11-21T16:52:24.921Z,4.70
2018-11-21T16:55:05.691Z,4.70
2018-11-21T16:57:47.381Z,4.70
2018-11-21T17:00:29.973Z,4.70
2018-11-21T17:03:11.328Z,4.60
2018-11-21T17:05:52.104Z,4.60
2018-11-21T17:08:33.270Z,4.70
2018-11-21T17:11:14.803Z,4.70
2018-11-21T17:13:56.308Z,4.70
2018-11-21T17:16:37.548Z,4.70
2018-11-21T17:19:18.714Z,4.70
2018-11-21T17:21:59.771Z,4.70
2018-11-21T17:24:41.170Z,4.70
2018-11-21T17:27:22.499Z,4.70
2018-11-21T17:30:03.672Z,4.70
2018-11-21T17:32:44.875Z,4.60
2018-11-21T17:35:26.314Z,4.50
2018-11-21T17:38:07.580Z,4.60
2018-11-21T17:40:49.281Z,4.60
2018-11-21T17:43:30.843Z,4.60
2018-11-21T17:46:12.433Z,4.50
2018-11-21T17:48:53.200Z,4.60
2018-11-21T17:51:34.913Z,4.60
2018-11-21T17:54:15.689Z,4.60
2018-11-21T17:56:56.924Z,4.60
2018-11-21T17:59:38.346Z,4.60
2018-11-21T18:02:19.520Z,4.60
2018-11-21T18:05:00.311Z,4.60
2018-11-21T18:07:41.804Z,4.60
2018-11-21T18:10:24.365Z,4.60
2018-11-21T18:13:05.189Z,4.60
2018-11-21T18:15:46.585Z,4.60
2018-11-21T18:18:27.911Z,4.70
2018-11-21T18:21:09.462Z,4.60
2018-11-21T18:23:50.754Z,4.60
2018-11-21T18:26:31.961Z,4.60
2018-11-21T18:29:13.077Z,4.60
2018-11-21T18:31:54.121Z,4.60
2018-11-21T18:34:34.946Z,4.60
2018-11-21T18:37:16.272Z,4.50
2018-11-21T18:39:57.445Z,4.50
2018-11-21T18:42:38.640Z,4.50
2018-11-21T18:45:20.561Z,4.40
2018-11-21T18:48:02.054Z,4.40
2018-11-21T18:50:43.681Z,4.40
2018-11-21T18:53:25.206Z,4.40
2018-11-21T18:56:06.429Z,4.40
2018-11-21T18:58:47.900Z,4.40
2018-11-21T19:01:29.436Z,4.50
2018-11-21T19:04:10.923Z,4.50
2018-11-21T19:06:52.130Z,4.40
2018-11-21T19:09:33.569Z,4.40
2018-11-21T19:12:14.923Z,4.40
2018-11-21T19:14:56.010Z,4.40
2018-11-21T19:17:36.955Z,4.40
2018-11-21T19:20:19.098Z,4.40
2018-11-21T19:23:00.560Z,4.50
2018-11-21T19:25:42.211Z,4.50
2018-11-21T19:28:23.137Z,4.50
2018-11-21T19:31:04.368Z,4.50
2018-11-21T19:33:45.609Z,4.50
2018-11-21T19:36:27.124Z,4.50
2018-11-21T19:39:08.455Z,4.50
2018-11-21T19:41:49.617Z,4.40
2018-11-21T19:44:31.043Z,4.40
2018-11-21T19:47:12.306Z,4.40
2018-11-21T19:49:53.767Z,4.30
2018-11-21T19:52:35.223Z,4.40
2018-11-21T19:55:21.612Z,4.30
2018-11-21T19:58:02.961Z,4.30
2018-11-21T20:00:44.354Z,4.30
2018-11-21T20:03:25.955Z,4.30
2018-11-21T20:06:06.993Z,4.40
2018-11-21T20:08:48.228Z,4.30
2018-11-21T20:11:29.746Z,4.40
2018-11-21T20:14:10.723Z,4.40
2018-11-21T20:16:52.065Z,4.40
2018-11-21T20:19:33.529Z,4.40
2018-11-21T20:22:14.851Z,4.40
2018-11-21T20:24:56.084Z,4.30
2018-11-21T20:27:37.364Z,4.30
2018-11-21T20:30:29.495Z,4.30
2018-11-21T20:33:11.127Z,4.30
2018-11-21T20:35:52.814Z,4.30
2018-11-21T20:38:34.176Z,4.30
2018-11-21T20:41:15.621Z,4.30
2018-11-21T20:43:56.570Z,4.20
2018-11-21T20:46:37.915Z,4.30
2018-11-21T20:49:19.305Z,4.30
2018-11-21T20:52:00.485Z,4.40
2018-11-21T20:54:41.528Z,4.40
2018-11-21T20:57:22.942Z,4.40
2018-11-21T21:00:04.338Z,4.40
2018-11-21T21:02:45.204Z,4.40
2018-11-21T21:05:27.358Z,4.40
2018-11-21T21:08:08.945Z,4.40
2018-11-21T21:10:50.427Z,4.30
2018-11-21T21:13:31.686Z,4.30
2018-11-21T21:16:12.980Z,4.40
2018-11-21T21:18:54.278Z,4.30
2018-11-21T21:21:35.548Z,4.30
2018-11-21T21:24:17.050Z,4.30
2018-11-21T21:26:58.331Z,4.30
2018-11-21T21:29:39.595Z,4.30
2018-11-21T21:32:21.112Z,4.30
2018-11-21T21:35:02.346Z,4.30
2018-11-21T21:37:43.131Z,4.30
2018-11-21T21:40:24.697Z,4.30
2018-11-21T21:43:05.441Z,4.40
2018-11-21T21:45:46.617Z,4.40
2018-11-21T21:48:27.797Z,4.40
2018-11-21T21:51:09.039Z,4.30
2018-11-21T21:53:50.393Z,4.40
2018-11-21T21:56:31.155Z,4.40
2018-11-21T21:59:12.175Z,4.40
2018-11-21T22:01:53.608Z,4.30
2018-11-21T22:04:34.935Z,4.30
2018-11-21T22:07:16.093Z,4.30
2018-11-21T22:09:57.496Z,4.20
2018-11-21T22:12:39.319Z,4.30
2018-11-21T22:18:18.464Z,4.30
2018-11-21T22:21:00.036Z,4.30
2018-11-21T22:23:41.452Z,4.20
2018-11-21T22:26:22.719Z,4.20
2018-11-21T22:29:03.966Z,4.30
